Little America, Wyoming
Current Conditions -  °F | °C
As of 11:35 AM on Thursday 30 Oct 2014 (Local Time) from KFBR Reporting Station
Clear Clear  
Wind Chill: 54°   Ceiling: Unl
Heat Index: 54°   Visibility: NA
Dew Point: 27°   Wind: 0mph
Humidity: 35%   Direction: NA
Pressure: 30.41"   Gusts: NA
Location:  41.54°N, 109.86°W
Report Text: KFBR 301735Z AUTO 00000KT CLR 12/M03 A3041 RMK AO2 T01201030 PWINO
Loading
Personal Weather Stations






























Interactive Weather Map
Tropical Storm Tracking
New forecast layout! Learn more

10-Day Weather Forecast

Advertisements
Track Severe Weather on mobile